Time;durP1;ratioP1;P1;durP2;ratioP2;P2;SDS_P1;SDS_P2;PMS_P1;PMS_P2;Temp;Humidity;BMP_temperature;BMP_pressure;BME280_temperature;BME280_humidity;BME280_pressure;Samples;Min_cycle;Max_cycle;Signal;HPM_P1;HPM_P2
2021/01/31 00:00:49;;;;;;;15.57;9.52;;;-0.80;88.00;;;;;;2079982;28;20507;-81
2021/01/31 00:01:50;;;;;;;18.23;10.45;;;-0.80;88.00;;;;;;2072776;28;20398;-81
2021/01/31 00:02:51;;;;;;;15.50;9.77;;;-0.80;88.00;;;;;;2077968;28;20040;-81
2021/01/31 00:03:52;;;;;;;16.92;9.82;;;-0.80;88.60;;;;;;2080812;28;20032;-82
2021/01/31 00:04:52;;;;;;;16.58;9.73;;;-0.80;88.10;;;;;;2080791;28;20032;-82
2021/01/31 00:05:55;;;;;;;16.65;10.05;;;-0.80;88.00;;;;;;2079957;28;20128;-82
2021/01/31 00:06:56;;;;;;;16.42;9.70;;;-0.80;88.10;;;;;;2080330;28;20025;-82
2021/01/31 00:07:57;;;;;;;15.85;9.82;;;-0.80;88.10;;;;;;2080588;28;20025;-81
2021/01/31 00:08:57;;;;;;;14.63;9.45;;;-0.80;88.10;;;;;;2072264;28;20088;-82
2021/01/31 00:09:58;;;;;;;18.40;10.60;;;-0.80;88.10;;;;;;2072001;28;20077;-81
2021/01/31 00:11:00;;;;;;;15.73;9.55;;;-0.80;88.10;;;;;;2072457;28;20026;-81
2021/01/31 00:12:00;;;;;;;18.35;9.77;;;-0.80;88.10;;;;;;2072164;28;20014;-81
2021/01/31 00:13:02;;;;;;;17.13;10.07;;;-0.80;88.10;;;;;;2056516;28;20026;-82
2021/01/31 00:14:03;;;;;;;15.90;9.23;;;-0.90;88.00;;;;;;2068911;28;20018;-82
2021/01/31 00:15:07;;;;;;;16.38;9.98;;;-0.80;88.10;;;;;;2080305;28;20368;-82
2021/01/31 00:16:07;;;;;;;17.73;9.98;;;-0.90;88.00;;;;;;2072697;28;20034;-82
2021/01/31 00:17:08;;;;;;;18.00;10.40;;;-0.90;88.00;;;;;;2071408;28;20057;-81
2021/01/31 00:18:10;;;;;;;16.52;10.30;;;-0.90;88.00;;;;;;2080615;28;20061;-82
2021/01/31 00:19:10;;;;;;;16.45;10.18;;;-0.90;88.10;;;;;;2079700;28;20033;-82
2021/01/31 00:20:12;;;;;;;16.63;9.98;;;-0.90;88.10;;;;;;2080508;28;20483;-82
2021/01/31 00:21:13;;;;;;;17.17;10.52;;;-0.90;88.20;;;;;;2080630;28;20141;-82
2021/01/31 00:22:14;;;;;;;18.35;10.38;;;-0.90;88.80;;;;;;2072257;28;20030;-82
2021/01/31 00:23:15;;;;;;;16.77;9.57;;;-0.90;88.20;;;;;;2072455;28;20136;-82
2021/01/31 00:24:16;;;;;;;14.73;9.45;;;-0.90;88.20;;;;;;2070658;28;20088;-81
2021/01/31 00:25:18;;;;;;;15.63;9.65;;;-1.00;88.20;;;;;;2089680;28;20029;-82
2021/01/31 00:26:19;;;;;;;15.40;9.70;;;-1.00;88.30;;;;;;2096229;28;20075;-81
2021/01/31 00:27:21;;;;;;;16.02;9.98;;;-1.00;88.30;;;;;;2079471;28;20191;-81
2021/01/31 00:28:24;;;;;;;15.23;9.45;;;-1.00;88.90;;;;;;2064592;28;20471;-82
2021/01/31 00:29:26;;;;;;;16.85;10.00;;;-1.00;88.40;;;;;;2063989;28;20034;-82
2021/01/31 00:30:35;;;;;;;16.10;9.75;;;-1.00;88.40;;;;;;2072572;28;20029;-82
2021/01/31 00:31:36;;;;;;;14.52;8.95;;;-1.00;88.40;;;;;;2080348;28;20033;-81
2021/01/31 00:32:37;;;;;;;17.60;10.73;;;-1.00;88.40;;;;;;2081134;28;20534;-81
2021/01/31 00:33:37;;;;;;;18.25;10.05;;;-1.00;88.40;;;;;;2090584;28;20117;-81
2021/01/31 00:34:38;;;;;;;16.52;9.35;;;-1.00;88.40;;;;;;2070939;28;20026;-81
2021/01/31 00:35:39;;;;;;;17.60;10.10;;;-1.00;88.40;;;;;;2073823;28;20508;-81
2021/01/31 00:36:39;;;;;;;17.60;10.85;;;-1.10;88.40;;;;;;2074119;28;20022;-81
2021/01/31 00:37:40;;;;;;;18.30;10.32;;;-1.10;88.40;;;;;;2073938;28;20034;-81
2021/01/31 00:38:41;;;;;;;16.75;10.35;;;-1.10;88.40;;;;;;2083661;28;20067;-81
2021/01/31 00:39:44;;;;;;;16.40;10.23;;;-1.10;88.50;;;;;;2078606;28;20151;-82
2021/01/31 00:40:45;;;;;;;16.90;9.60;;;-1.10;88.50;;;;;;2066304;28;20126;-81
2021/01/31 00:41:46;;;;;;;17.35;10.25;;;-1.10;89.10;;;;;;2080907;28;20175;-82
2021/01/31 00:42:46;;;;;;;17.40;11.05;;;-1.10;88.60;;;;;;2082353;28;20495;-82
2021/01/31 00:43:47;;;;;;;18.77;11.10;;;-1.10;88.60;;;;;;2073729;28;20125;-81
2021/01/31 00:44:50;;;;;;;16.15;9.93;;;-1.10;88.60;;;;;;2073949;28;20523;-81
2021/01/31 00:45:52;;;;;;;15.60;9.95;;;-1.10;88.60;;;;;;2073502;28;20040;-81
2021/01/31 00:46:53;;;;;;;17.88;11.27;;;-1.10;88.60;;;;;;2068692;28;20125;-81
2021/01/31 00:47:54;;;;;;;17.08;10.55;;;-1.10;88.60;;;;;;2082288;28;20057;-81
2021/01/31 00:48:55;;;;;;;17.83;10.73;;;-1.20;88.60;;;;;;2073854;28;20058;-81
2021/01/31 00:49:55;;;;;;;16.50;10.02;;;-1.20;88.60;;;;;;2072465;28;20124;-80
2021/01/31 00:50:56;;;;;;;16.25;9.98;;;-1.20;88.60;;;;;;2066758;28;20464;-82
2021/01/31 00:51:57;;;;;;;18.92;11.55;;;-1.20;88.60;;;;;;2082101;28;20017;-81
2021/01/31 00:52:57;;;;;;;16.30;9.88;;;-1.20;89.20;;;;;;2081688;28;20400;-79
2021/01/31 00:53:58;;;;;;;18.73;10.63;;;-1.20;88.70;;;;;;2082185;28;20025;-81
2021/01/31 00:54:59;;;;;;;18.05;10.77;;;-1.20;88.70;;;;;;2072897;28;20030;-81
2021/01/31 00:55:59;;;;;;;16.15;9.95;;;-1.20;88.70;;;;;;2078447;28;20119;-81
2021/01/31 00:57:00;;;;;;;19.23;11.50;;;-1.20;88.70;;;;;;2082288;28;20033;-81
2021/01/31 00:58:01;;;;;;;17.23;10.50;;;-1.20;88.80;;;;;;2073789;28;20026;-81
2021/01/31 00:59:01;;;;;;;16.95;10.40;;;-1.20;88.80;;;;;;2073695;28;20030;-81
2021/01/31 01:00:24;;;;;;;17.58;10.38;;;-1.20;88.80;;;;;;2073498;28;20045;-81
2021/01/31 01:01:25;;;;;;;17.92;10.82;;;-1.30;88.80;;;;;;2083319;28;20041;-81
2021/01/31 01:02:26;;;;;;;18.13;10.77;;;-1.30;88.80;;;;;;2082214;28;20056;-81
2021/01/31 01:03:26;;;;;;;17.02;10.93;;;-1.30;88.80;;;;;;2090046;28;20036;-81
2021/01/31 01:04:27;;;;;;;17.23;10.68;;;-1.30;88.80;;;;;;2090047;28;20045;-82
2021/01/31 01:05:30;;;;;;;15.75;9.73;;;-1.30;88.80;;;;;;2081380;28;20442;-81
2021/01/31 01:06:30;;;;;;;16.73;10.35;;;-1.30;88.80;;;;;;2081966;28;20021;-81
2021/01/31 01:07:31;;;;;;;17.27;10.48;;;-1.30;88.90;;;;;;2073902;28;20108;-81
2021/01/31 01:08:32;;;;;;;18.70;11.77;;;-1.30;88.90;;;;;;2073731;28;20026;-81
2021/01/31 01:09:32;;;;;;;16.15;10.18;;;-1.30;88.90;;;;;;2082060;28;20041;-82
2021/01/31 01:10:35;;;;;;;17.70;10.48;;;-1.30;88.90;;;;;;2073653;28;20029;-82
2021/01/31 01:11:36;;;;;;;17.55;10.15;;;-1.30;88.90;;;;;;2073616;28;20030;-82
2021/01/31 01:12:37;;;;;;;18.45;10.98;;;-1.30;89.00;;;;;;2082138;28;20053;-82
2021/01/31 01:13:37;;;;;;;17.85;11.68;;;-1.30;89.00;;;;;;2088485;28;20498;-81
2021/01/31 01:14:38;;;;;;;18.27;11.13;;;-1.30;89.00;;;;;;2073858;28;20496;-82
2021/01/31 01:15:39;;;;;;;17.70;10.90;;;-1.30;89.00;;;;;;2057330;28;20027;-82
2021/01/31 01:16:39;;;;;;;17.52;11.25;;;-1.30;89.00;;;;;;2077851;28;20053;-82
2021/01/31 01:17:40;;;;;;;18.40;10.93;;;-1.30;89.00;;;;;;2080870;28;20462;-81
2021/01/31 01:18:41;;;;;;;16.45;10.23;;;-1.30;89.00;;;;;;2064732;28;20031;-82
2021/01/31 01:19:41;;;;;;;19.83;11.38;;;-1.30;89.00;;;;;;2051873;28;20111;-82
2021/01/31 01:20:42;;;;;;;17.30;10.73;;;-1.30;89.00;;;;;;2070124;28;20048;-82
2021/01/31 01:21:43;;;;;;;16.90;10.48;;;-1.30;89.00;;;;;;2082450;28;20511;-82
2021/01/31 01:22:43;;;;;;;16.75;9.95;;;-1.30;89.00;;;;;;2097806;28;20044;-82
2021/01/31 01:23:44;;;;;;;16.75;10.40;;;-1.30;89.00;;;;;;2082008;28;20036;-82
2021/01/31 01:24:44;;;;;;;14.20;8.80;;;-1.30;89.00;;;;;;2073604;28;20030;-83
2021/01/31 01:25:45;;;;;;;15.90;9.93;;;-1.30;89.00;;;;;;2073224;28;20411;-82
2021/01/31 01:26:46;;;;;;;16.92;10.27;;;-1.30;89.00;;;;;;2073818;28;20022;-82
2021/01/31 01:27:46;;;;;;;15.93;9.75;;;-1.30;89.00;;;;;;2081880;28;20025;-82
2021/01/31 01:28:47;;;;;;;15.07;9.80;;;-1.30;89.10;;;;;;2081401;28;20112;-83
2021/01/31 01:29:48;;;;;;;16.38;10.07;;;-1.30;89.10;;;;;;2073729;28;20033;-82
2021/01/31 01:30:49;;;;;;;17.10;10.50;;;-1.30;89.10;;;;;;2081149;28;20033;-83
2021/01/31 01:31:49;;;;;;;16.65;10.48;;;-1.30;89.10;;;;;;2081841;28;20513;-82
2021/01/31 01:32:50;;;;;;;17.23;10.38;;;-1.30;89.10;;;;;;2081981;28;20454;-82
2021/01/31 01:33:51;;;;;;;17.42;10.75;;;-1.30;89.10;;;;;;2073417;28;20036;-82
2021/01/31 01:34:52;;;;;;;16.83;10.73;;;-1.30;89.10;;;;;;2073903;28;20052;-82
2021/01/31 01:35:53;;;;;;;19.27;11.30;;;-1.20;89.10;;;;;;2081898;28;20029;-82
2021/01/31 01:36:53;;;;;;;16.95;10.32;;;-1.30;89.60;;;;;;2081943;28;20474;-81
2021/01/31 01:37:54;;;;;;;17.50;10.18;;;-1.20;89.70;;;;;;2073707;28;20030;-82
2021/01/31 01:38:55;;;;;;;15.77;10.07;;;-1.30;89.00;;;;;;2073149;28;20026;-82
2021/01/31 01:39:56;;;;;;;15.25;9.20;;;-1.20;89.70;;;;;;2048710;28;20046;-82
2021/01/31 01:40:56;;;;;;;17.10;10.35;;;-1.30;89.00;;;;;;2068589;28;20030;-82
2021/01/31 01:41:57;;;;;;;18.83;10.65;;;-1.20;89.10;;;;;;2081362;28;20423;-82
2021/01/31 01:42:58;;;;;;;16.75;10.55;;;-1.30;89.60;;;;;;2081641;28;20377;-82
2021/01/31 01:43:58;;;;;;;15.55;9.48;;;-1.30;89.00;;;;;;2081228;28;20139;-82
2021/01/31 01:44:59;;;;;;;15.68;9.70;;;-1.30;89.10;;;;;;2072817;28;20073;-83
2021/01/31 01:46:17;;;;;;;18.20;11.23;;;-1.30;89.10;;;;;;2085996;28;20112;-82
2021/01/31 01:47:24;;;;;;;17.27;10.88;;;-1.30;89.10;;;;;;2084219;28;20045;-82
2021/01/31 01:48:24;;;;;;;16.98;10.25;;;-1.30;89.10;;;;;;2089148;28;20025;-82
2021/01/31 01:49:31;;;;;;;16.33;10.43;;;-1.30;89.10;;;;;;2073441;28;20022;-82
2021/01/31 01:50:45;;;;;;;15.55;9.75;;;-1.30;89.60;;;;;;2069585;28;20393;-82
2021/01/31 01:51:58;;;;;;;15.00;9.35;;;-1.30;89.00;;;;;;2081831;28;20025;-83
2021/01/31 01:53:00;;;;;;;14.40;9.60;;;-1.30;89.00;;;;;;2081953;28;20081;-82
2021/01/31 01:54:01;;;;;;;15.10;9.55;;;-1.30;89.00;;;;;;2081325;28;20029;-82
2021/01/31 01:55:07;;;;;;;14.90;8.63;;;-1.20;89.10;;;;;;2089947;28;20040;-82
2021/01/31 01:56:23;;;;;;;14.35;8.88;;;-1.20;89.00;;;;;;2088591;28;20056;-82
2021/01/31 01:57:33;;;;;;;14.45;9.02;;;-1.20;89.10;;;;;;2067598;28;20046;-83
2021/01/31 01:58:34;;;;;;;14.25;8.90;;;-1.20;89.00;;;;;;2067090;28;20026;-82
2021/01/31 01:59:37;;;;;;;14.40;9.52;;;-1.20;89.00;;;;;;2071937;28;20583;-82
2021/01/31 02:00:41;;;;;;;15.48;9.02;;;-1.20;89.00;;;;;;2069592;28;20113;-82
2021/01/31 02:01:56;;;;;;;15.05;9.45;;;-1.20;89.10;;;;;;2075073;28;20088;-82
2021/01/31 02:03:10;;;;;;;15.05;9.43;;;-1.20;89.10;;;;;;2078447;28;20026;-82
2021/01/31 02:04:11;;;;;;;14.95;9.32;;;-1.20;89.10;;;;;;2076319;28;20104;-82
2021/01/31 02:05:15;;;;;;;17.83;10.52;;;-1.20;89.00;;;;;;2073223;28;20566;-82
2021/01/31 02:06:17;;;;;;;15.60;9.65;;;-1.20;89.00;;;;;;2073850;28;20117;-82
2021/01/31 02:07:19;;;;;;;16.48;10.23;;;-1.20;89.00;;;;;;2090419;28;20103;-83
2021/01/31 02:08:19;;;;;;;16.75;9.52;;;-1.20;89.00;;;;;;2090613;28;20025;-82
2021/01/31 02:09:20;;;;;;;15.45;9.75;;;-1.20;89.00;;;;;;2081754;28;20430;-81
2021/01/31 02:10:23;;;;;;;14.20;9.23;;;-1.20;89.00;;;;;;2082133;28;20076;-82
2021/01/31 02:11:23;;;;;;;15.02;9.52;;;-1.20;89.10;;;;;;2076320;28;20022;-82
2021/01/31 02:12:28;;;;;;;17.95;10.48;;;-1.20;89.10;;;;;;2081624;28;20059;-82
2021/01/31 02:13:29;;;;;;;15.50;9.63;;;-1.20;89.10;;;;;;2089363;28;20025;-82
2021/01/31 02:14:32;;;;;;;16.15;10.30;;;-1.20;89.20;;;;;;2080653;28;20524;-82
2021/01/31 02:15:33;;;;;;;14.75;9.27;;;-1.20;89.20;;;;;;2072392;28;20036;-82
2021/01/31 02:16:49;;;;;;;14.48;9.45;;;-1.20;89.20;;;;;;2081537;28;20037;-82
2021/01/31 02:18:00;;;;;;;15.75;10.07;;;-1.20;89.20;;;;;;2089851;28;20074;-82
2021/01/31 02:19:46;;;;;;;17.70;10.98;;;-1.20;89.20;;;;;;2087613;28;20094;-82
2021/01/31 02:21:07;;;;;;;15.82;9.57;;;-1.20;89.20;;;;;;2080673;28;20044;-82
2021/01/31 02:22:17;;;;;;;16.77;9.90;;;-1.20;89.20;;;;;;2076656;28;20239;-82
2021/01/31 02:23:57;;;;;;;17.33;10.43;;;-1.20;89.10;;;;;;2082391;28;20041;-82
2021/01/31 02:25:19;;;;;;;14.40;9.45;;;-1.20;89.20;;;;;;2086758;28;20025;-82
2021/01/31 02:26:55;;;;;;;15.77;9.38;;;-1.30;89.10;;;;;;2081237;28;20026;-82
2021/01/31 02:28:23;;;;;;;14.75;9.55;;;-1.30;89.00;;;;;;2074849;28;20025;-82
2021/01/31 02:29:58;;;;;;;16.58;10.05;;;-1.30;89.00;;;;;;2084825;28;20465;-83
2021/01/31 02:31:07;;;;;;;15.25;9.50;;;-1.30;89.00;;;;;;2079865;28;20037;-83
2021/01/31 02:32:30;;;;;;;15.13;9.27;;;-1.30;89.10;;;;;;2081379;28;20391;-83
2021/01/31 02:33:48;;;;;;;17.40;10.15;;;-1.30;89.10;;;;;;2084336;28;20059;-82
2021/01/31 02:34:58;;;;;;;14.80;9.43;;;-1.40;89.10;;;;;;2080062;28;20025;-83
2021/01/31 02:36:12;;;;;;;11.52;7.15;;;-1.40;89.20;;;;;;2081323;28;20530;-82
2021/01/31 02:37:51;;;;;;;15.00;8.88;;;-1.40;89.20;;;;;;2087193;28;20017;-82
2021/01/31 02:39:06;;;;;;;16.90;9.38;;;-1.40;89.20;;;;;;2081176;28;20079;-82
2021/01/31 02:40:15;;;;;;;15.63;9.52;;;-1.40;89.20;;;;;;2083048;28;20044;-82
2021/01/31 02:41:27;;;;;;;17.23;10.18;;;-1.40;89.20;;;;;;2081156;28;20057;-82
2021/01/31 02:42:40;;;;;;;16.73;9.77;;;-1.40;89.20;;;;;;2073549;28;20468;-83
2021/01/31 02:43:46;;;;;;;15.02;9.50;;;-1.40;89.20;;;;;;2075817;28;20025;-82
2021/01/31 02:45:21;;;;;;;17.10;10.38;;;-1.40;89.30;;;;;;2081172;28;20491;-83
2021/01/31 02:46:25;;;;;;;15.32;9.38;;;-1.40;89.30;;;;;;2069851;28;20040;-83
2021/01/31 02:47:27;;;;;;;16.45;10.02;;;-1.40;89.40;;;;;;2086017;28;20029;-83
2021/01/31 02:48:39;;;;;;;17.23;10.38;;;-1.40;89.40;;;;;;2081047;28;20080;-83
2021/01/31 02:49:49;;;;;;;16.15;9.40;;;-1.40;89.40;;;;;;2074562;28;20053;-83
2021/01/31 02:50:57;;;;;;;14.32;9.02;;;-1.40;89.40;;;;;;2073752;28;20486;-82
2021/01/31 02:52:13;;;;;;;14.27;9.13;;;-1.40;89.40;;;;;;2081267;28;20076;-82
2021/01/31 02:53:34;;;;;;;14.15;8.40;;;-1.40;89.40;;;;;;2081154;28;20029;-83
2021/01/31 02:54:42;;;;;;;14.90;8.70;;;-1.40;89.40;;;;;;2075651;28;20026;-82
2021/01/31 02:55:55;;;;;;;15.23;9.13;;;-1.40;89.40;;;;;;2079876;28;20144;-82
2021/01/31 02:57:09;;;;;;;15.15;9.48;;;-1.40;89.40;;;;;;2086080;28;20099;-82
2021/01/31 02:58:16;;;;;;;16.38;9.80;;;-1.40;89.40;;;;;;2087753;28;20071;-82
2021/01/31 02:59:34;;;;;;;13.93;8.55;;;-1.40;89.40;;;;;;2080632;28;20037;-81
2021/01/31 03:00:53;;;;;;;13.60;8.43;;;-1.40;89.40;;;;;;2081072;28;20021;-82
2021/01/31 03:02:15;;;;;;;14.82;9.30;;;-1.40;89.40;;;;;;2080484;28;20503;-82
2021/01/31 03:03:49;;;;;;;14.57;8.32;;;-1.40;89.50;;;;;;2081352;28;20091;-82
2021/01/31 03:04:56;;;;;;;13.35;8.32;;;-1.40;89.40;;;;;;2084152;28;20018;-81
2021/01/31 03:06:00;;;;;;;16.23;9.35;;;-1.40;89.40;;;;;;2081132;28;20084;-82
2021/01/31 03:07:24;;;;;;;15.05;8.75;;;-1.40;89.40;;;;;;2081156;28;20040;-81
2021/01/31 03:08:34;;;;;;;16.25;9.38;;;-1.40;89.40;;;;;;2085551;28;20024;-82
2021/01/31 03:09:50;;;;;;;14.60;8.75;;;-1.40;89.40;;;;;;2095937;28;20024;-82
2021/01/31 03:11:06;;;;;;;15.40;8.93;;;-1.40;90.00;;;;;;2087417;28;20025;-82
2021/01/31 03:12:12;;;;;;;12.30;7.65;;;-1.40;89.40;;;;;;2080611;28;20029;-82
2021/01/31 03:13:23;;;;;;;13.60;8.38;;;-1.40;89.40;;;;;;2082007;28;20067;-82
2021/01/31 03:14:37;;;;;;;15.77;8.93;;;-1.40;89.50;;;;;;2075342;28;20030;-82
2021/01/31 03:15:56;;;;;;;13.43;8.30;;;-1.40;89.40;;;;;;2074764;28;20056;-82
2021/01/31 03:17:03;;;;;;;12.90;7.80;;;-1.40;89.50;;;;;;2075170;28;20023;-82
2021/01/31 03:18:11;;;;;;;15.00;9.13;;;-1.40;89.50;;;;;;2080746;28;20097;-82
2021/01/31 03:19:28;;;;;;;13.63;8.45;;;-1.40;89.50;;;;;;2069512;28;20022;-82
2021/01/31 03:20:34;;;;;;;13.25;8.20;;;-1.40;89.50;;;;;;2076106;28;20033;-83
2021/01/31 03:21:38;;;;;;;13.00;8.30;;;-1.40;89.50;;;;;;2082448;28;20025;-82
2021/01/31 03:22:45;;;;;;;15.15;8.85;;;-1.40;89.50;;;;;;2077053;28;20022;-82
2021/01/31 03:24:03;;;;;;;11.70;7.47;;;-1.40;89.60;;;;;;2082809;28;20040;-82
2021/01/31 03:25:09;;;;;;;13.90;7.90;;;-1.40;89.60;;;;;;2093935;28;20032;-82
2021/01/31 03:26:19;;;;;;;12.60;7.78;;;-1.40;89.60;;;;;;2087235;28;20044;-83
2021/01/31 03:27:26;;;;;;;10.00;5.82;;;-1.40;89.60;;;;;;2085345;28;20024;-81
2021/01/31 03:28:26;;;;;;;14.80;8.50;;;-1.40;89.60;;;;;;2086418;28;20029;-81
2021/01/31 03:29:27;;;;;;;13.93;7.80;;;-1.40;89.60;;;;;;2075623;28;20036;-82
2021/01/31 03:30:28;;;;;;;14.05;8.65;;;-1.40;90.10;;;;;;2073010;28;20026;-82
2021/01/31 03:31:31;;;;;;;15.20;8.57;;;-1.40;89.60;;;;;;2089949;28;20049;-82
2021/01/31 03:32:37;;;;;;;15.68;9.70;;;-1.40;89.60;;;;;;2081650;28;20025;-82
2021/01/31 03:33:47;;;;;;;14.68;9.55;;;-1.40;89.60;;;;;;2079774;28;20472;-81
2021/01/31 03:35:18;;;;;;;15.38;9.48;;;-1.40;89.60;;;;;;2086539;28;20032;-81
2021/01/31 03:36:19;;;;;;;;;;;-1.40;89.60;;;;;;2085955;28;20042;-81
2021/01/31 03:37:28;;;;;;;15.98;9.55;;;-1.40;89.60;;;;;;2077619;28;20383;-82
2021/01/31 03:38:34;;;;;;;18.02;10.23;;;-1.40;89.60;;;;;;2086184;28;20483;-82
2021/01/31 03:39:39;;;;;;;14.93;9.38;;;-1.40;89.50;;;;;;2086919;28;20388;-81
2021/01/31 03:40:45;;;;;;;14.30;8.82;;;-1.40;89.50;;;;;;2081229;28;20021;-82
2021/01/31 03:41:46;;;;;;;13.55;8.90;;;-1.40;89.50;;;;;;2080331;28;20069;-82
2021/01/31 03:42:47;;;;;;;14.32;9.35;;;-1.50;89.50;;;;;;2072236;28;20037;-82
2021/01/31 03:43:48;;;;;;;14.80;9.00;;;-1.50;89.50;;;;;;2064627;28;20033;-82
2021/01/31 03:44:53;;;;;;;14.98;9.38;;;-1.50;89.50;;;;;;2065062;28;20026;-82
2021/01/31 03:46:15;;;;;;;14.57;9.18;;;-1.50;89.60;;;;;;2073125;28;20030;-81
2021/01/31 03:47:29;;;;;;;16.70;9.73;;;-1.50;89.60;;;;;;2083875;28;20029;-82
2021/01/31 03:48:51;;;;;;;15.77;9.65;;;-1.50;89.60;;;;;;2087090;28;20025;-82
2021/01/31 03:49:56;;;;;;;16.40;9.02;;;-1.50;89.60;;;;;;2078626;28;20034;-82
2021/01/31 03:50:56;;;;;;;16.13;9.63;;;-1.50;89.50;;;;;;2076203;28;20081;-81
2021/01/31 03:51:58;;;;;;;15.00;9.15;;;-1.50;89.60;;;;;;2077239;28;20029;-84
2021/01/31 03:52:59;;;;;;;16.02;9.88;;;-1.50;89.60;;;;;;2078382;28;20037;-84
2021/01/31 03:54:00;;;;;;;15.70;9.15;;;-1.50;90.00;;;;;;2087122;28;20033;-81
2021/01/31 03:55:01;;;;;;;14.13;9.50;;;-1.50;89.60;;;;;;2076397;28;20029;-81
2021/01/31 03:56:03;;;;;;;16.60;10.13;;;-1.50;89.60;;;;;;2084366;28;20043;-81
2021/01/31 03:57:14;;;;;;;16.05;9.90;;;-1.50;89.60;;;;;;2086731;28;20033;-82
2021/01/31 03:58:18;;;;;;;16.83;10.05;;;-1.50;89.60;;;;;;2080066;28;20017;-83
2021/01/31 03:59:37;;;;;;;17.10;9.90;;;-1.50;89.60;;;;;;2081847;28;20116;-82
2021/01/31 04:00:54;;;;;;;15.02;9.40;;;-1.50;89.60;;;;;;2097734;28;20028;-82
2021/01/31 04:01:56;;;;;;;15.70;9.02;;;-1.50;89.60;;;;;;2085845;28;20041;-81
2021/01/31 04:03:12;;;;;;;15.80;9.60;;;-1.50;89.60;;;;;;2086850;28;20108;-82
2021/01/31 04:04:17;;;;;;;13.90;9.00;;;-1.50;89.60;;;;;;2093239;28;20033;-82
2021/01/31 04:05:19;;;;;;;15.13;9.27;;;-1.50;89.50;;;;;;2080349;28;20041;-82
2021/01/31 04:06:25;;;;;;;14.95;9.50;;;-1.50;89.60;;;;;;2080454;28;20533;-83
2021/01/31 04:07:30;;;;;;;16.20;9.98;;;-1.50;89.60;;;;;;2078879;28;20032;-82
2021/01/31 04:08:32;;;;;;;15.30;9.43;;;-1.50;89.60;;;;;;2073291;28;20033;-81
2021/01/31 04:09:37;;;;;;;14.60;8.90;;;-1.50;89.60;;;;;;2080345;28;20514;-82
2021/01/31 04:10:42;;;;;;;14.60;9.40;;;-1.50;89.60;;;;;;2080468;28;20049;-82
2021/01/31 04:11:44;;;;;;;15.13;9.07;;;-1.50;89.60;;;;;;2080654;28;20029;-81
2021/01/31 04:12:52;;;;;;;14.25;8.85;;;-1.50;89.60;;;;;;2080137;28;20057;-83
2021/01/31 04:13:52;;;;;;;14.07;8.63;;;-1.50;89.60;;;;;;2073212;28;20022;-82
2021/01/31 04:15:02;;;;;;;15.38;8.73;;;-1.50;89.60;;;;;;2072230;28;20088;-82
2021/01/31 04:16:06;;;;;;;12.85;8.32;;;-1.50;89.60;;;;;;2078637;28;20034;-83
2021/01/31 04:17:07;;;;;;;15.60;8.95;;;-1.50;89.60;;;;;;2080787;28;20568;-82
2021/01/31 04:18:09;;;;;;;15.65;9.48;;;-1.50;89.60;;;;;;2071346;28;20101;-82
2021/01/31 04:19:11;;;;;;;14.43;9.00;;;-1.50;89.60;;;;;;2072798;28;20064;-82
2021/01/31 04:20:12;;;;;;;15.77;9.50;;;-1.50;89.60;;;;;;2080344;28;20017;-82
2021/01/31 04:21:13;;;;;;;15.18;9.68;;;-1.50;89.70;;;;;;2071317;28;20400;-82
2021/01/31 04:22:13;;;;;;;15.82;9.60;;;-1.50;89.70;;;;;;2064478;28;20127;-82
2021/01/31 04:23:14;;;;;;;15.93;9.82;;;-1.50;89.70;;;;;;2072543;28;20041;-82
2021/01/31 04:24:15;;;;;;;17.05;10.07;;;-1.50;89.70;;;;;;2072444;28;20170;-82
2021/01/31 04:25:16;;;;;;;17.23;10.52;;;-1.50;89.70;;;;;;2083666;28;20170;-82
2021/01/31 04:26:16;;;;;;;16.45;9.88;;;-1.50;90.10;;;;;;2080744;28;20068;-83
2021/01/31 04:27:17;;;;;;;15.63;9.60;;;-1.50;89.70;;;;;;2071748;28;20150;-83
2021/01/31 04:28:22;;;;;;;16.27;10.43;;;-1.60;89.60;;;;;;2072517;28;20032;-83
2021/01/31 04:29:23;;;;;;;17.85;10.23;;;-1.50;89.80;;;;;;2057099;28;20122;-81
2021/01/31 04:30:23;;;;;;;18.10;10.73;;;-1.60;90.10;;;;;;2080768;28;20456;-82
2021/01/31 04:31:26;;;;;;;16.88;10.57;;;-1.50;89.80;;;;;;2079997;28;20107;-82
2021/01/31 04:32:27;;;;;;;16.20;9.98;;;-1.50;89.80;;;;;;2064712;28;20030;-82
2021/01/31 04:33:27;;;;;;;16.33;10.10;;;-1.60;89.70;;;;;;2080703;28;20049;-82
2021/01/31 04:34:28;;;;;;;16.38;10.25;;;-1.60;89.70;;;;;;2080399;28;20470;-82
2021/01/31 04:35:28;;;;;;;17.08;10.02;;;-1.60;89.70;;;;;;2074882;28;20067;-82
2021/01/31 04:36:29;;;;;;;16.73;10.32;;;-1.60;89.70;;;;;;2080793;28;20061;-82
2021/01/31 04:37:30;;;;;;;15.77;9.27;;;-1.60;89.70;;;;;;2080680;28;20026;-82
2021/01/31 04:38:31;;;;;;;15.82;9.82;;;-1.60;89.70;;;;;;2077255;28;20365;-82
2021/01/31 04:39:31;;;;;;;14.15;8.95;;;-1.60;89.70;;;;;;2080606;28;20373;-83
2021/01/31 04:40:34;;;;;;;17.17;9.60;;;-1.60;90.10;;;;;;2072339;28;20029;-83
2021/01/31 04:41:40;;;;;;;15.25;9.02;;;-1.50;89.80;;;;;;2072614;28;20045;-83
2021/01/31 04:42:41;;;;;;;13.73;8.57;;;-1.60;90.10;;;;;;2063718;28;20508;-82
2021/01/31 04:43:43;;;;;;;15.63;9.40;;;-1.60;89.80;;;;;;2071011;28;20030;-83
2021/01/31 04:44:44;;;;;;;14.52;9.30;;;-1.60;89.80;;;;;;2080890;28;20030;-83
2021/01/31 04:45:45;;;;;;;16.33;9.77;;;-1.60;89.80;;;;;;2080830;28;20499;-83
2021/01/31 04:46:52;;;;;;;14.75;9.18;;;-1.60;89.80;;;;;;2065475;28;20038;-83
2021/01/31 04:48:02;;;;;;;14.80;8.95;;;-1.60;89.80;;;;;;2079904;28;20087;-83
2021/01/31 04:49:30;;;;;;;14.27;9.18;;;-1.60;89.80;;;;;;2073130;28;20022;-82
2021/01/31 04:50:48;;;;;;;15.07;8.95;;;-1.60;89.80;;;;;;2085400;28;20407;-82
2021/01/31 04:52:01;;;;;;;15.63;9.43;;;-1.60;89.70;;;;;;2088753;28;20469;-82
2021/01/31 04:53:15;;;;;;;14.57;8.90;;;-1.60;89.70;;;;;;2078995;28;20029;-83
2021/01/31 04:54:29;;;;;;;12.32;7.50;;;-1.60;89.60;;;;;;2075750;28;20021;-82
2021/01/31 04:55:51;;;;;;;15.05;8.85;;;-1.60;89.60;;;;;;2072523;28;20025;-82
2021/01/31 04:57:04;;;;;;;13.65;8.25;;;-1.60;89.60;;;;;;2074671;28;20025;-82
2021/01/31 04:58:16;;;;;;;15.15;8.60;;;-1.50;89.60;;;;;;2080385;28;20031;-82
2021/01/31 04:59:28;;;;;;;15.10;8.85;;;-1.60;90.00;;;;;;2080490;28;20057;-83
2021/01/31 05:00:32;;;;;;;15.95;9.18;;;-1.60;89.60;;;;;;2072507;28;20060;-82
2021/01/31 05:01:33;;;;;;;13.40;8.45;;;-1.60;89.60;;;;;;2064752;28;20378;-82
2021/01/31 05:02:40;;;;;;;13.27;8.40;;;-1.60;89.60;;;;;;2073050;28;20033;-82
2021/01/31 05:03:50;;;;;;;13.77;8.73;;;-1.60;89.60;;;;;;2087511;28;20025;-82
2021/01/31 05:04:56;;;;;;;16.25;9.25;;;-1.60;89.60;;;;;;2081186;28;20021;-82
2021/01/31 05:06:10;;;;;;;13.60;8.02;;;-1.60;89.70;;;;;;2080300;28;20033;-82
2021/01/31 05:07:11;;;;;;;13.55;7.90;;;-1.60;89.60;;;;;;2074165;28;20025;-82
2021/01/31 05:08:21;;;;;;;13.43;8.38;;;-1.60;89.60;;;;;;2080731;28;20493;-83
2021/01/31 05:09:24;;;;;;;13.27;8.00;;;-1.60;89.70;;;;;;2080443;28;20014;-83
2021/01/31 05:10:26;;;;;;;14.82;9.05;;;-1.60;89.70;;;;;;2080129;28;20074;-82
2021/01/31 05:11:39;;;;;;;13.57;8.35;;;-1.60;89.60;;;;;;2080412;28;20091;-82
2021/01/31 05:12:47;;;;;;;13.30;8.20;;;-1.60;89.70;;;;;;2080054;28;20036;-82
2021/01/31 05:14:04;;;;;;;12.32;7.85;;;-1.60;89.70;;;;;;2072716;28;20054;-82
2021/01/31 05:15:25;;;;;;;14.75;8.93;;;-1.60;89.60;;;;;;2080613;28;20059;-82
2021/01/31 05:16:27;;;;;;;13.95;8.30;;;-1.60;89.60;;;;;;2074847;28;20137;-82
2021/01/31 05:17:29;;;;;;;14.82;8.70;;;-1.60;89.60;;;;;;2080156;28;20021;-83
2021/01/31 05:18:33;;;;;;;14.75;9.10;;;-1.60;89.60;;;;;;2080787;28;20029;-82
2021/01/31 05:19:36;;;;;;;14.02;8.55;;;-1.60;89.60;;;;;;2082086;28;20068;-83
2021/01/31 05:20:37;;;;;;;12.73;7.70;;;-1.60;89.60;;;;;;2080519;28;20029;-83
2021/01/31 05:21:38;;;;;;;13.18;8.13;;;-1.60;89.60;;;;;;2080517;28;20041;-82
2021/01/31 05:22:44;;;;;;;14.82;8.65;;;-1.60;89.60;;;;;;2073621;28;20018;-82
2021/01/31 05:24:07;;;;;;;13.40;8.23;;;-1.60;89.70;;;;;;2074124;28;20034;-82
2021/01/31 05:25:13;;;;;;;14.10;8.50;;;-1.60;89.70;;;;;;2074193;28;20491;-82
2021/01/31 05:26:17;;;;;;;12.77;8.00;;;-1.60;89.60;;;;;;2074559;28;20069;-82
2021/01/31 05:27:18;;;;;;;14.48;8.77;;;-1.60;89.60;;;;;;2073733;28;20512;-82
2021/01/31 05:28:22;;;;;;;13.95;8.18;;;-1.60;89.60;;;;;;2065669;28;20026;-82
2021/01/31 05:29:27;;;;;;;14.93;8.98;;;-1.60;89.60;;;;;;2073859;28;20021;-82
2021/01/31 05:30:30;;;;;;;15.75;9.27;;;-1.60;89.60;;;;;;2081689;28;20139;-83
2021/01/31 05:31:35;;;;;;;15.50;9.20;;;-1.60;89.70;;;;;;2086196;28;20063;-82
2021/01/31 05:33:12;;;;;;;14.70;9.23;;;-1.60;89.70;;;;;;2086921;28;20025;-82
2021/01/31 05:34:13;;;;;;;16.23;9.20;;;-1.60;89.70;;;;;;2087935;28;20036;-82
2021/01/31 05:35:22;;;;;;;14.52;8.98;;;-1.60;89.60;;;;;;2081949;28;20551;-82
2021/01/31 05:36:25;;;;;;;14.65;8.98;;;-1.60;89.60;;;;;;2081197;28;20127;-82
2021/01/31 05:37:41;;;;;;;13.93;8.88;;;-1.60;89.60;;;;;;2073593;28;20409;-82
2021/01/31 05:38:45;;;;;;;15.35;9.40;;;-1.60;89.60;;;;;;2081950;28;20132;-82